Time;durP1;ratioP1;P1;durP2;ratioP2;P2;SDS_P1;SDS_P2;PMS_P1;PMS_P2;Temp;Humidity;BMP_temperature;BMP_pressure;BME280_temperature;BME280_humidity;BME280_pressure;Samples;Min_cycle;Max_cycle;Signal;HPM_P1;HPM_P2
2023/10/13 00:02:28;;;;;;;8.73;5.68;;;;;;;-145.68;100.00;73373.88;10473711;28;20217;-69
2023/10/13 00:07:28;;;;;;;12.27;5.82;;;;;;;-145.68;100.00;73387.88;10473108;28;20228;-69
2023/10/13 00:12:31;;;;;;;10.63;5.10;;;;;;;-145.68;100.00;73385.88;10472831;28;20219;-69
2023/10/13 00:17:32;;;;;;;8.30;5.22;;;;;;;-145.68;100.00;73393.84;10472923;28;20188;-68
2023/10/13 00:22:33;;;;;;;9.93;4.93;;;;;;;-145.68;100.00;73381.88;10472802;28;20208;-69
2023/10/13 00:27:36;;;;;;;9.70;5.53;;;;;;;-145.68;100.00;73409.84;10472493;28;20246;-68
2023/10/13 00:32:39;;;;;;;9.70;5.32;;;;;;;-145.68;100.00;73389.88;10471654;28;20226;-68
2023/10/13 00:37:44;;;;;;;11.35;5.55;;;;;;;-145.68;100.00;73405.84;10468380;28;20886;-68
2023/10/13 00:42:51;;;;;;;6.68;4.80;;;;;;;-145.68;100.00;73383.88;10470065;28;20297;-68
2023/10/13 00:47:56;;;;;;;9.38;5.25;;;;;;;-145.68;100.00;73397.84;10471813;28;20252;-68
2023/10/13 00:52:57;;;;;;;9.48;5.18;;;;;;;-145.68;100.00;73417.84;10455053;28;20222;-68
2023/10/13 00:58:03;;;;;;;6.55;4.93;;;;;;;-145.68;100.00;73421.84;10471841;28;20278;-68
2023/10/13 01:03:06;;;;;;;8.30;4.95;;;;;;;-145.68;100.00;73423.84;10470080;28;20215;-68
2023/10/13 01:08:11;;;;;;;7.35;4.55;;;;;;;-145.68;100.00;73423.84;10467996;28;20709;-68
2023/10/13 01:13:12;;;;;;;7.45;4.30;;;;;;;-145.68;100.00;73413.84;10469993;28;20766;-68
2023/10/13 01:18:13;;;;;;;7.80;3.97;;;;;;;-145.68;100.00;73399.84;10470223;28;20235;-68
2023/10/13 01:23:24;;;;;;;7.53;4.50;;;;;;;-145.68;100.00;73415.84;10471109;28;20268;-68
2023/10/13 01:28:25;;;;;;;6.53;4.68;;;;;;;-145.68;100.00;73403.84;10479289;28;20222;-68
2023/10/13 01:33:29;;;;;;;7.68;4.57;;;;;;;-145.68;100.00;73393.84;10477880;28;20717;-69
2023/10/13 01:38:33;;;;;;;8.65;5.13;;;;;;;-145.68;100.00;73393.84;10477851;28;20199;-69
2023/10/13 01:43:34;;;;;;;6.65;4.90;;;;;;;-145.68;100.00;73399.84;10457113;22;20240;-66
2023/10/13 01:48:40;;;;;;;9.98;5.05;;;;;;;-145.68;100.00;73381.88;10436558;28;20228;-66
2023/10/13 01:53:43;;;;;;;7.93;4.55;;;;;;;-145.68;100.00;73401.84;10437465;28;20208;-66
2023/10/13 01:58:47;;;;;;;8.80;4.65;;;;;;;-145.68;100.00;73399.84;10436905;28;20191;-65
2023/10/13 02:03:48;;;;;;;5.43;3.95;;;;;;;-145.68;100.00;73397.84;10418655;28;20722;-66
2023/10/13 02:08:52;;;;;;;5.95;4.13;;;;;;;-145.68;100.00;73389.88;10418948;28;20224;-65
2023/10/13 02:13:53;;;;;;;7.95;4.05;;;;;;;-145.68;100.00;73379.88;10436354;28;20636;-65
2023/10/13 02:18:54;;;;;;;8.65;4.05;;;;;;;-145.68;100.00;73363.88;10418299;28;20216;-65
2023/10/13 02:24:03;;;;;;;6.78;4.28;;;;;;;-145.68;100.00;73369.88;10418224;28;20303;-65
2023/10/13 02:29:07;;;;;;;7.80;4.15;;;;;;;-145.68;100.00;73367.88;10431618;28;20585;-65
2023/10/13 02:34:08;;;;;;;6.03;4.03;;;;;;;-145.68;100.00;73373.88;10407489;28;20216;-66
2023/10/13 02:39:08;;;;;;;6.32;4.00;;;;;;;-145.68;100.00;73361.88;10416120;28;20392;-66
2023/10/13 02:44:11;;;;;;;6.32;3.78;;;;;;;-145.68;100.00;73345.88;10434524;28;20262;-67
2023/10/13 02:49:13;;;;;;;7.97;4.18;;;;;;;-145.68;100.00;73373.88;10431367;28;20254;-66
2023/10/13 02:54:18;;;;;;;9.68;4.30;;;;;;;-145.68;100.00;73353.88;10416283;28;20693;-66
2023/10/13 02:59:33;;;;;;;5.10;3.83;;;;;;;-145.68;100.00;73357.88;10433740;28;20188;-66
2023/10/13 03:04:35;;;;;;;10.40;4.40;;;;;;;-145.68;100.00;73365.88;10434043;28;20220;-66
2023/10/13 03:09:37;;;;;;;6.20;3.63;;;;;;;-145.68;100.00;73341.91;10434045;28;20221;-66
2023/10/13 03:14:37;;;;;;;5.70;4.00;;;;;;;-145.68;100.00;73365.88;10433562;28;20212;-65
2023/10/13 03:19:38;;;;;;;4.50;3.88;;;;;;;-145.68;100.00;73359.88;10433623;28;20419;-65
2023/10/13 03:24:45;;;;;;;6.88;4.50;;;;;;;-145.68;100.00;73341.91;10433567;28;20212;-65
2023/10/13 03:29:54;;;;;;;7.55;4.40;;;;;;;-145.68;100.00;73341.91;10427415;28;20259;-65
2023/10/13 03:35:03;;;;;;;5.55;4.10;;;;;;;-145.68;100.00;73333.91;10433121;28;20286;-65
2023/10/13 03:40:48;;;;;;;9.30;4.22;;;;;;;-145.68;100.00;73349.88;10432558;28;20545;-65
2023/10/13 03:45:28;;;;;;;5.15;4.10;;;;;;;-145.68;100.00;73335.91;10416146;28;20297;-65
2023/10/13 03:50:29;;;;;;;6.65;3.90;;;;;;;-145.68;100.00;73359.88;10431336;28;20741;-65
2023/10/13 03:55:30;;;;;;;5.65;3.65;;;;;;;-145.68;100.00;73361.88;10431640;28;20193;-65
2023/10/13 04:00:31;;;;;;;5.53;3.80;;;;;;;-145.68;100.00;73383.88;10431604;28;20196;-66
2023/10/13 04:05:46;;;;;;;7.07;4.80;;;;;;;-145.68;100.00;73407.84;10434138;28;20734;-66
2023/10/13 04:16:54;;;;;;;8.82;4.00;;;;;;;-145.68;100.00;73403.84;10449105;28;20283;-66
2023/10/13 04:27:15;;;;;;;8.27;4.70;;;;;;;-145.68;100.00;73385.88;10448255;28;20202;-66
2023/10/13 04:32:02;;;;;;;5.43;4.80;;;;;;;-145.68;100.00;73371.88;10446215;28;20231;-66
2023/10/13 04:38:18;;;;;;;5.22;4.32;;;;;;;-145.68;100.00;73355.88;10448169;28;20188;-66
2023/10/13 04:42:53;;;;;;;5.75;4.07;;;;;;;-145.68;100.00;73323.91;10429704;28;20235;-67
2023/10/13 04:48:39;;;;;;;4.13;3.60;;;;;;;-145.68;100.00;73321.91;10447755;28;20603;-67
2023/10/13 04:53:33;;;;;;;7.38;4.32;;;;;;;-145.68;100.00;73321.91;10433153;28;20223;-67
2023/10/13 04:59:17;;;;;;;8.88;4.60;;;;;;;-145.68;100.00;73335.91;10448238;28;20184;-67
2023/10/13 05:04:30;;;;;;;8.23;4.32;;;;;;;-145.68;100.00;73317.91;10455926;28;20987;-66
2023/10/13 05:52:18;;;;;;;5.45;3.50;;;;;;;-145.68;100.00;73327.91;10454203;28;20220;-67
2023/10/13 06:29:19;;;;;;;3.65;2.47;;;;;;;-145.68;100.00;73271.94;10453058;28;20210;-68
2023/10/13 06:34:21;;;;;;;2.40;2.20;;;;;;;-145.68;100.00;73265.94;10447037;28;20220;-67
2023/10/13 06:39:36;;;;;;;4.50;2.75;;;;;;;-145.68;100.00;73245.97;10452545;28;20188;-67
2023/10/13 06:44:39;;;;;;;3.10;2.40;;;;;;;-145.68;100.00;73253.94;10452332;28;20369;-68
2023/10/13 06:49:43;;;;;;;3.83;1.83;;;;;;;-145.68;100.00;73219.97;10452046;28;20705;-67
2023/10/13 06:54:43;;;;;;;2.33;1.90;;;;;;;-145.68;100.00;73207.97;10452704;28;20297;-67
2023/10/13 06:59:44;;;;;;;2.05;1.77;;;;;;;-145.68;100.00;73184.00;10433919;28;20762;-67
2023/10/13 07:04:44;;;;;;;2.28;1.80;;;;;;;-145.68;100.00;73168.00;10450819;28;20203;-67
2023/10/13 07:09:58;;;;;;;4.40;2.08;;;;;;;-145.68;100.00;73146.03;10448299;28;20219;-68
2023/10/13 07:15:31;;;;;;;3.00;1.80;;;;;;;-145.68;100.00;73118.03;10447139;28;20257;-67
2023/10/13 07:25:38;;;;;;;3.72;2.08;;;;;;;-145.68;96.06;73080.06;10448867;28;20216;-66
2023/10/13 07:30:49;;;;;;;3.60;1.90;;;;;;;-145.68;92.97;73056.09;10432184;28;20555;-65
2023/10/13 07:41:30;;;;;;;4.85;2.15;;;;;;;-145.68;90.30;73012.13;10448675;28;20235;-66
2023/10/13 07:46:32;;;;;;;2.80;2.05;;;;;;;-145.68;89.48;72998.13;10429091;28;20216;-66
2023/10/13 07:51:44;;;;;;;3.40;1.90;;;;;;;-145.68;87.73;73002.13;10448461;28;21050;-68
2023/10/13 07:56:44;;;;;;;4.22;1.98;;;;;;;-145.68;87.59;72996.13;10449055;28;20279;-66
2023/10/13 08:01:45;;;;;;;3.10;1.90;;;;;;;-145.68;86.59;72980.13;10448715;28;20207;-67
2023/10/13 08:06:46;;;;;;;3.10;1.80;;;;;;;-145.68;85.87;72960.16;10443694;28;20196;-67
2023/10/13 08:11:46;;;;;;;3.63;2.00;;;;;;;-145.68;84.32;72920.19;10447559;28;20234;-68
2023/10/13 08:16:52;;;;;;;3.25;2.13;;;;;;;-145.68;83.34;72894.22;10448204;28;20196;-67
2023/10/13 08:27:35;;;;;;;2.30;2.10;;;;;;;-145.68;80.55;72856.22;10485303;22;20292;-67
2023/10/13 08:33:38;;;;;;;6.40;2.15;;;;;;;-145.68;77.18;72804.28;10484199;28;20199;-66
2023/10/13 08:38:13;;;;;;;4.95;2.17;;;;;;;-145.68;78.11;72832.25;10473352;28;20215;-67
2023/10/13 08:43:16;;;;;;;4.97;1.80;;;;;;;-145.68;77.39;72752.31;10465881;28;20218;-68
2023/10/13 08:48:18;;;;;;;4.97;2.20;;;;;;;-145.68;74.48;72710.34;10484701;28;20217;-67
2023/10/13 09:03:53;;;;;;;3.63;2.15;;;;;;;-145.68;74.40;72738.31;10488433;28;20245;-66
2023/10/13 09:09:06;;;;;;;5.88;2.55;;;;;;;-145.68;73.46;72720.34;10466807;28;20276;-66
2023/10/13 09:14:32;;;;;;;5.70;2.50;;;;;;;-145.68;74.72;72744.31;10487686;28;20278;-68
2023/10/13 09:19:44;;;;;;;6.38;2.90;;;;;;;-145.68;74.87;72778.28;10485821;28;20203;-67
2023/10/13 09:24:51;;;;;;;3.97;2.38;;;;;;;-145.68;75.00;72770.31;10487115;28;20317;-67
2023/10/13 09:29:55;;;;;;;5.03;2.88;;;;;;;-145.68;77.38;72774.31;10487064;28;20219;-67
2023/10/13 09:35:01;;;;;;;6.90;2.78;;;;;;;-145.68;77.80;72766.31;10487803;28;20223;-68
2023/10/13 09:40:07;;;;;;;6.90;3.33;;;;;;;-145.68;77.20;72746.31;10484379;28;20203;-67
2023/10/13 09:45:12;;;;;;;4.10;3.60;;;;;;;-145.68;77.71;72768.31;10488343;28;20203;-67
2023/10/13 09:50:24;;;;;;;13.23;3.90;;;;;;;-145.68;77.16;72752.31;10495136;28;20561;-67
2023/10/13 09:55:34;;;;;;;7.45;4.80;;;;;;;-145.68;78.18;72764.31;10495053;28;20207;-68
2023/10/13 10:05:49;;;;;;;8.80;4.25;;;;;;;-145.68;74.43;72710.34;10476173;28;20206;-68
2023/10/13 10:10:56;;;;;;;8.27;5.10;;;;;;;-145.68;75.06;72706.34;10487193;28;20215;-68
2023/10/13 10:16:00;;;;;;;10.10;4.63;;;;;;;-145.68;73.36;72682.38;10470607;28;20596;-68
2023/10/13 10:21:07;;;;;;;8.52;4.80;;;;;;;-145.68;73.87;72710.34;10493810;28;20283;-68
2023/10/13 10:26:15;;;;;;;14.75;3.58;;;;;;;-145.68;72.70;72670.38;10492694;28;20607;-68
2023/10/13 10:31:17;;;;;;;9.55;3.85;;;;;;;-145.68;71.71;72660.38;10489841;28;20261;-67
2023/10/13 10:36:29;;;;;;;11.32;4.00;;;;;;;-145.68;70.78;72676.38;10492754;28;20215;-68
2023/10/13 10:41:44;;;;;;;10.00;4.15;;;;;;;-145.68;72.12;72700.34;10492602;28;20196;-67
2023/10/13 10:47:01;;;;;;;10.30;3.42;;;;;;;-145.68;72.30;72696.34;10464851;28;20227;-67
2023/10/13 10:52:04;;;;;;;9.68;4.10;;;;;;;-145.68;73.16;72664.38;10466590;28;20238;-67
2023/10/13 10:57:17;;;;;;;11.07;4.10;;;;;;;-145.68;72.53;72674.38;10457775;28;20212;-67
2023/10/13 11:02:27;;;;;;;9.90;4.47;;;;;;;-145.68;71.93;72628.41;10458851;28;20195;-68
2023/10/13 11:07:28;;;;;;;12.57;3.97;;;;;;;-145.68;71.22;72612.44;10465191;28;20238;-68
2023/10/13 11:12:28;;;;;;;12.50;4.60;;;;;;;-145.68;69.31;72574.47;10467687;28;20270;-68
2023/10/13 11:17:41;;;;;;;17.00;4.35;;;;;;;-145.68;67.46;72536.50;10466362;28;20212;-68
2023/10/13 11:22:49;;;;;;;15.48;4.40;;;;;;;-145.68;67.96;72544.50;10487851;28;20195;-68
2023/10/13 11:32:58;;;;;;;16.25;4.88;;;;;;;-145.68;67.83;72540.50;10490627;28;20732;-68
2023/10/13 11:38:13;;;;;;;12.88;3.95;;;;;;;-145.68;66.63;72516.50;10489522;28;20218;-67
2023/10/13 11:43:15;;;;;;;16.33;5.22;;;;;;;-145.68;66.36;72552.47;10490644;28;20241;-67
2023/10/13 11:48:16;;;;;;;11.40;4.05;;;;;;;-145.68;64.40;72566.47;10485992;28;20220;-67
2023/10/13 11:53:16;;;;;;;11.88;3.92;;;;;;;-145.68;63.26;72560.47;10487587;28;20229;-67
2023/10/13 11:58:17;;;;;;;11.98;4.13;;;;;;;-145.68;62.52;72538.50;10489435;28;20205;-67
2023/10/13 12:08:49;;;;;;;9.20;3.80;;;;;;;-145.68;61.10;72520.50;10490366;28;20587;-67
2023/10/13 12:13:49;;;;;;;11.25;4.22;;;;;;;-145.68;61.03;72520.50;10488642;28;20207;-67
2023/10/13 12:18:53;;;;;;;13.98;3.80;;;;;;;-145.68;60.34;72500.53;10481144;28;20595;-67
2023/10/13 12:23:53;;;;;;;12.40;4.55;;;;;;;-145.68;58.96;72490.53;10485894;28;20584;-67
2023/10/13 12:29:05;;;;;;;12.77;4.65;;;;;;;-145.68;57.95;72476.53;10483129;28;20318;-68
2023/10/13 12:34:17;;;;;;;9.85;4.72;;;;;;;-145.68;57.76;72430.59;10487013;28;20202;-67
2023/10/13 12:50:05;;;;;;;8.65;3.53;;;;;;;-145.68;55.78;72312.69;10428599;28;20322;-68
2023/10/13 13:00:16;;;;;;;9.32;3.90;;;;;;;-145.68;50.91;72176.81;10486269;28;20711;-69
2023/10/13 13:05:21;;;;;;;11.43;4.15;;;;;;;-145.68;50.00;72086.91;10480378;28;20231;-69
2023/10/13 13:10:34;;;;;;;7.85;4.30;;;;;;;-145.68;48.66;72116.88;10475778;28;20266;-69
2023/10/13 13:15:35;;;;;;;8.35;3.63;;;;;;;-145.68;49.35;72148.84;10456233;28;20214;-69
2023/10/13 13:20:39;;;;;;;11.52;3.90;;;;;;;-145.68;48.51;72112.88;10488168;28;20198;-68
2023/10/13 13:25:42;;;;;;;11.75;3.83;;;;;;;-145.68;48.63;72100.88;10449849;28;1016733;-68
2023/10/13 13:30:42;;;;;;;12.45;4.18;;;;;;;-145.68;50.12;72140.84;10488193;28;20230;-69
2023/10/13 13:35:43;;;;;;;12.13;4.28;;;;;;;-145.68;49.49;72192.78;10478206;28;20208;-68
2023/10/13 13:40:48;;;;;;;13.93;4.68;;;;;;;-145.68;50.37;72168.81;10485692;28;20232;-69
2023/10/13 13:45:49;;;;;;;7.53;4.10;;;;;;;-145.68;50.58;72146.84;10480534;28;20624;-68
2023/10/13 13:50:55;;;;;;;9.60;4.40;;;;;;;-145.68;50.91;72176.81;10467538;28;20241;-68
2023/10/13 13:55:55;;;;;;;12.13;4.47;;;;;;;-145.68;50.48;72092.91;10475882;28;20219;-68
2023/10/13 14:01:12;;;;;;;13.68;4.85;;;;;;;-145.68;49.66;72092.91;10470686;28;20685;-69
2023/10/13 14:06:28;;;;;;;12.68;4.13;;;;;;;-145.68;50.92;72104.88;10475388;28;20759;-68
2023/10/13 14:16:46;;;;;;;11.75;4.22;;;;;;;-145.68;50.80;72188.81;10481285;28;20600;-69
2023/10/13 14:21:53;;;;;;;10.50;3.85;;;;;;;-145.68;50.20;72148.84;10477842;28;20196;-68
2023/10/13 14:27:07;;;;;;;11.82;4.00;;;;;;;-145.68;49.53;72140.84;10469342;22;20255;-65
2023/10/13 14:32:15;;;;;;;8.93;3.75;;;;;;;-145.68;50.32;72188.81;10407193;28;20216;-65
2023/10/13 14:37:26;;;;;;;12.90;4.57;;;;;;;-145.68;50.55;72206.78;10438917;28;20204;-65
2023/10/13 14:42:27;;;;;;;14.80;4.80;;;;;;;-145.68;50.81;72190.81;10450421;28;20196;-65
2023/10/13 14:47:27;;;;;;;10.63;4.18;;;;;;;-145.68;50.54;72176.81;10448562;28;20207;-67
2023/10/13 14:52:31;;;;;;;9.80;4.32;;;;;;;-145.68;51.71;72244.75;10445626;28;20187;-65
2023/10/13 14:57:32;;;;;;;14.38;4.68;;;;;;;-145.68;50.31;72180.81;10444491;28;20303;-66
2023/10/13 15:02:32;;;;;;;12.85;4.03;;;;;;;-145.68;50.51;72230.75;10445634;28;20210;-65
2023/10/13 15:07:33;;;;;;;7.53;3.92;;;;;;;-145.68;51.16;72272.72;10450622;28;20697;-65
2023/10/13 15:12:33;;;;;;;13.95;4.75;;;;;;;-145.68;50.78;72272.72;10450610;28;20262;-66
2023/10/13 15:17:38;;;;;;;8.25;4.07;;;;;;;-145.68;50.53;72280.72;10450669;28;20204;-64
2023/10/13 15:22:38;;;;;;;12.68;4.35;;;;;;;-145.68;50.36;72274.72;10449227;28;20262;-65
2023/10/13 15:27:41;;;;;;;12.20;3.72;;;;;;;-145.68;50.68;72288.72;10449711;28;20232;-65
2023/10/13 15:32:41;;;;;;;12.88;4.38;;;;;;;-145.68;49.48;72284.72;10445245;28;20197;-65
2023/10/13 15:37:47;;;;;;;15.80;4.22;;;;;;;-145.68;49.63;72308.69;10447444;28;20211;-66
2023/10/13 15:42:47;;;;;;;10.38;4.22;;;;;;;-145.68;50.21;72320.69;10441807;28;20191;-65
2023/10/13 15:47:47;;;;;;;8.93;4.05;;;;;;;-145.68;49.28;72292.72;10448935;28;20420;-66
2023/10/13 15:52:48;;;;;;;8.40;4.47;;;;;;;-145.68;49.96;72306.69;10448928;28;20203;-65
2023/10/13 15:57:52;;;;;;;12.23;4.50;;;;;;;-145.68;49.78;72312.69;10449110;28;20207;-65
2023/10/13 16:02:56;;;;;;;8.55;4.25;;;;;;;-145.68;49.12;72310.69;10449564;28;20196;-65
2023/10/13 16:07:57;;;;;;;15.73;4.05;;;;;;;-145.68;49.56;72332.66;10448620;28;20250;-65
2023/10/13 16:13:00;;;;;;;8.35;3.75;;;;;;;-145.68;49.53;72354.66;10446210;28;20292;-65
2023/10/13 16:18:02;;;;;;;12.43;4.05;;;;;;;-145.68;49.83;72370.63;10427738;28;20212;-67
2023/10/13 16:23:02;;;;;;;15.13;5.05;;;;;;;-145.68;50.50;72414.59;10427428;28;20195;-66
2023/10/13 16:28:03;;;;;;;10.43;4.05;;;;;;;-145.68;50.78;72412.59;10422609;28;20244;-66
2023/10/13 16:33:05;;;;;;;10.82;4.00;;;;;;;-145.68;51.18;72422.59;10423171;28;20187;-66
2023/10/13 16:38:08;;;;;;;13.10;4.07;;;;;;;-145.68;52.19;72458.56;10430243;28;20207;-66
2023/10/13 16:43:08;;;;;;;7.45;4.40;;;;;;;-145.68;51.91;72462.56;10430452;28;20208;-66
2023/10/13 16:48:09;;;;;;;11.93;4.15;;;;;;;-145.68;51.67;72442.56;10430238;28;20690;-66
2023/10/13 16:53:12;;;;;;;9.18;4.47;;;;;;;-145.68;51.77;72456.56;10430044;28;20559;-66
2023/10/13 16:58:13;;;;;;;20.80;5.80;;;;;;;-145.68;51.98;72464.56;10423391;28;20725;-65
2023/10/13 17:03:13;;;;;;;11.98;4.28;;;;;;;-145.68;51.44;72458.56;10429645;28;20206;-66
2023/10/13 17:08:13;;;;;;;13.00;4.20;;;;;;;-145.68;51.16;72444.56;10428493;28;20705;-66
2023/10/13 17:13:14;;;;;;;14.50;5.38;;;;;;;-145.68;50.58;72434.59;10429074;28;20274;-66
2023/10/13 17:18:16;;;;;;;10.13;4.63;;;;;;;-145.68;51.24;72454.56;10428168;28;20328;-65
2023/10/13 17:23:16;;;;;;;10.23;4.38;;;;;;;-145.68;51.74;72464.56;10428807;28;20196;-66
2023/10/13 17:28:17;;;;;;;12.07;4.68;;;;;;;-145.68;52.06;72464.56;10428640;28;20235;-66
2023/10/13 17:33:17;;;;;;;9.63;4.30;;;;;;;-145.68;52.36;72474.53;10428497;28;20301;-66
2023/10/13 17:38:17;;;;;;;8.73;4.15;;;;;;;-145.68;52.21;72466.56;10428957;28;20211;-66
2023/10/13 17:43:18;;;;;;;11.52;4.15;;;;;;;-145.68;52.15;72464.56;10429111;28;20323;-66
2023/10/13 17:48:18;;;;;;;14.32;4.43;;;;;;;-145.68;52.08;72476.53;10428457;28;20223;-67
2023/10/13 17:53:19;;;;;;;7.35;4.25;;;;;;;-145.68;51.58;72442.56;10428110;28;20187;-67
2023/10/13 17:58:21;;;;;;;13.10;4.68;;;;;;;-145.68;51.91;72452.56;10428051;28;20211;-66
2023/10/13 18:03:22;;;;;;;8.85;3.92;;;;;;;-145.68;51.74;72444.56;10428486;28;20204;-66
2023/10/13 18:08:22;;;;;;;12.45;4.40;;;;;;;-145.68;51.76;72430.59;10431714;28;20310;-66
2023/10/13 18:13:23;;;;;;;8.43;4.53;;;;;;;-145.68;51.88;72448.56;10435284;28;20200;-66
2023/10/13 18:18:23;;;;;;;7.57;4.00;;;;;;;-145.68;51.88;72428.59;10435062;28;20216;-66
2023/10/13 18:23:23;;;;;;;8.77;4.18;;;;;;;-145.68;51.51;72428.59;10434714;28;20192;-66
2023/10/13 18:28:24;;;;;;;9.68;4.00;;;;;;;-145.68;51.46;72414.59;10434162;28;20234;-66
2023/10/13 18:33:24;;;;;;;8.77;3.77;;;;;;;-145.68;51.26;72416.59;10434199;28;20591;-65
2023/10/13 18:38:29;;;;;;;10.23;4.47;;;;;;;-145.68;51.05;72394.63;10434270;28;20472;-66
2023/10/13 18:43:30;;;;;;;9.30;4.25;;;;;;;-145.68;50.63;72392.63;10434238;28;20826;-66
2023/10/13 18:48:30;;;;;;;9.40;4.07;;;;;;;-145.68;50.58;72392.63;10433887;28;20232;-66
2023/10/13 18:53:31;;;;;;;10.30;3.80;;;;;;;-145.68;50.43;72380.63;10433888;28;20650;-65
2023/10/13 18:58:33;;;;;;;8.48;3.67;;;;;;;-145.68;49.93;72366.63;10433551;28;20234;-65
2023/10/13 19:03:34;;;;;;;9.00;3.90;;;;;;;-145.68;49.86;72366.63;10433701;28;20204;-66
2023/10/13 19:08:34;;;;;;;14.97;4.60;;;;;;;-145.68;50.26;72386.63;10433051;28;20236;-65
2023/10/13 19:13:38;;;;;;;10.90;3.67;;;;;;;-145.68;50.21;72394.63;10433067;28;20458;-65
2023/10/13 19:18:40;;;;;;;8.73;3.58;;;;;;;-145.68;50.32;72402.59;10432029;28;20209;-65
2023/10/13 19:23:41;;;;;;;8.75;3.65;;;;;;;-145.68;50.46;72414.59;10432774;28;20201;-65
2023/10/13 19:28:42;;;;;;;12.15;4.20;;;;;;;-145.68;50.02;72402.59;10447573;28;20246;-65
2023/10/13 19:33:46;;;;;;;7.07;4.07;;;;;;;-145.68;50.23;72410.59;10424921;28;20193;-65
2023/10/13 19:38:48;;;;;;;9.00;3.38;;;;;;;-145.68;50.51;72428.59;10432208;28;20306;-66
2023/10/13 19:43:50;;;;;;;8.43;3.47;;;;;;;-145.68;49.87;72398.63;10432266;28;20223;-65
2023/10/13 19:48:50;;;;;;;11.95;4.13;;;;;;;-145.68;50.39;72408.59;10427291;28;20707;-65
2023/10/13 19:53:51;;;;;;;11.30;3.45;;;;;;;-145.68;50.14;72408.59;10414934;28;20283;-65
2023/10/13 19:58:51;;;;;;;11.57;4.10;;;;;;;-145.68;49.97;72398.63;10421793;28;20227;-64
2023/10/13 20:03:56;;;;;;;10.48;3.50;;;;;;;-145.68;50.15;72414.59;10423719;28;20285;-65
2023/10/13 20:08:58;;;;;;;11.68;3.70;;;;;;;-145.68;49.96;72406.59;10431055;28;20235;-65
2023/10/13 20:13:58;;;;;;;11.77;2.80;;;;;;;-145.68;49.59;72390.63;10431154;28;20192;-65
2023/10/13 20:18:58;;;;;;;9.07;3.25;;;;;;;-145.68;49.35;72384.63;10429285;28;20209;-65
2023/10/13 20:24:00;;;;;;;15.57;3.58;;;;;;;-145.68;48.60;72360.66;10430923;28;20204;-65
2023/10/13 20:29:01;;;;;;;8.20;3.28;;;;;;;-145.68;47.94;72338.66;10472382;22;20278;-68
2023/10/13 20:34:04;;;;;;;8.18;3.42;;;;;;;-145.68;47.39;72308.69;10471559;28;20294;-68
2023/10/13 20:39:05;;;;;;;6.63;2.90;;;;;;;-145.68;47.20;72298.69;10472095;28;20207;-68
2023/10/13 20:44:05;;;;;;;10.98;2.85;;;;;;;-145.68;46.65;72286.72;10472029;28;20685;-68
2023/10/13 20:49:05;;;;;;;10.48;3.92;;;;;;;-145.68;46.76;72288.72;10471182;28;20233;-68
2023/10/13 20:54:10;;;;;;;9.18;3.05;;;;;;;-145.68;46.79;72292.72;10471960;28;20257;-68
2023/10/13 20:59:14;;;;;;;16.83;3.78;;;;;;;-145.68;46.96;72294.72;10471336;28;20214;-68
2023/10/13 21:04:14;;;;;;;10.88;2.75;;;;;;;-145.68;47.03;72296.69;10467211;28;20557;-68
2023/10/13 21:09:19;;;;;;;15.60;3.42;;;;;;;-145.68;46.93;72294.72;10470423;28;20250;-68
2023/10/13 21:14:19;;;;;;;8.38;3.40;;;;;;;-145.68;46.49;72270.72;10470604;28;20274;-68
2023/10/13 21:19:20;;;;;;;8.10;3.38;;;;;;;-145.68;46.58;72260.72;10471470;28;20288;-68
2023/10/13 21:24:20;;;;;;;11.27;3.38;;;;;;;-145.68;46.18;72256.75;10470203;28;20191;-68
2023/10/13 21:29:21;;;;;;;9.98;3.90;;;;;;;-145.68;45.93;72246.75;10470121;28;20231;-68
2023/10/13 21:34:24;;;;;;;11.32;3.20;;;;;;;-145.68;45.68;72232.75;10470165;28;20206;-68
2023/10/13 21:39:24;;;;;;;8.52;3.28;;;;;;;-145.68;45.40;72224.78;10470059;28;20211;-68
2023/10/13 21:44:25;;;;;;;7.18;3.05;;;;;;;-145.68;45.51;72234.75;10476866;28;20578;-68
2023/10/13 21:49:25;;;;;;;12.23;3.33;;;;;;;-145.68;45.62;72234.75;10477645;28;20223;-68
2023/10/13 21:54:25;;;;;;;11.85;2.90;;;;;;;-145.68;45.87;72244.75;10478130;28;20200;-68
2023/10/13 21:59:26;;;;;;;15.10;3.60;;;;;;;-145.68;46.53;72268.72;10477341;28;20234;-68
2023/10/13 22:04:30;;;;;;;9.25;2.83;;;;;;;-145.68;46.62;72266.72;10477575;28;20195;-68
2023/10/13 22:09:30;;;;;;;7.75;3.15;;;;;;;-145.68;46.78;72268.72;10477759;28;20215;-68
2023/10/13 22:14:31;;;;;;;7.45;3.15;;;;;;;-145.68;46.96;72268.72;10477032;28;21467;-68
2023/10/13 22:19:31;;;;;;;6.15;3.00;;;;;;;-145.68;47.59;72290.72;10476971;28;20636;-68
2023/10/13 22:24:33;;;;;;;9.15;3.38;;;;;;;-145.68;47.52;72278.72;10476705;28;20200;-68
2023/10/13 22:29:33;;;;;;;7.68;3.38;;;;;;;-145.68;47.39;72276.72;10476520;28;20326;-68
2023/10/13 22:34:34;;;;;;;8.38;3.67;;;;;;;-145.68;47.23;72276.72;10476508;28;20199;-68
2023/10/13 22:39:34;;;;;;;14.30;3.22;;;;;;;-145.68;46.89;72268.72;10476047;28;20575;-68
2023/10/13 22:44:36;;;;;;;11.70;4.00;;;;;;;-145.68;46.74;72256.75;10476566;28;20581;-68
2023/10/13 22:49:39;;;;;;;7.68;3.15;;;;;;;-145.68;45.57;72220.78;10475624;28;20359;-68
2023/10/13 22:54:41;;;;;;;8.43;2.80;;;;;;;-145.68;45.72;72212.78;10476314;28;20188;-68
2023/10/13 22:59:42;;;;;;;10.75;3.08;;;;;;;-145.68;44.91;72180.81;10475496;28;20204;-68
2023/10/13 23:04:42;;;;;;;12.40;3.22;;;;;;;-145.68;43.18;72098.88;10467336;28;20192;-68
2023/10/13 23:09:48;;;;;;;10.07;3.38;;;;;;;-145.68;41.95;72040.94;10475246;28;20306;-68
2023/10/13 23:14:50;;;;;;;7.30;3.40;;;;;;;-145.68;41.33;72008.97;10474741;28;20314;-68
2023/10/13 23:19:52;;;;;;;8.32;2.88;;;;;;;-145.68;41.24;72000.97;10474937;28;20212;-67
2023/10/13 23:24:52;;;;;;;10.02;3.03;;;;;;;-145.68;40.42;71937.03;10474760;28;20199;-68
2023/10/13 23:29:52;;;;;;;9.80;3.40;;;;;;;-145.68;40.58;71937.03;10473847;28;20235;-68
2023/10/13 23:34:53;;;;;;;7.28;3.58;;;;;;;-145.68;40.52;71937.03;10474462;28;20196;-68
2023/10/13 23:39:53;;;;;;;7.65;3.35;;;;;;;-145.68;40.26;71917.06;10473758;28;20290;-68
2023/10/13 23:45:06;;;;;;;11.27;3.40;;;;;;;-145.68;40.40;71927.06;10474091;28;20203;-67
2023/10/13 23:50:16;;;;;;;5.13;2.83;;;;;;;-145.68;40.47;71923.06;10473989;28;20215;-68
2023/10/13 23:55:17;;;;;;;5.93;3.30;;;;;;;-145.68;40.54;71919.06;10469893;28;20187;-67
